sensor_id;sensor_type;location;lat;lon;timestamp;temperature;humidity
72814;DHT22;60945;48.516;-2.768;2022-11-04T00:01:58;10.00;81.10
72814;DHT22;60945;48.516;-2.768;2022-11-04T00:04:25;9.80;82.20
72814;DHT22;60945;48.516;-2.768;2022-11-04T00:06:52;9.80;83.10
72814;DHT22;60945;48.516;-2.768;2022-11-04T00:09:20;9.80;84.20
72814;DHT22;60945;48.516;-2.768;2022-11-04T00:11:46;9.80;83.60
72814;DHT22;60945;48.516;-2.768;2022-11-04T00:14:31;9.80;83.50
72814;DHT22;60945;48.516;-2.768;2022-11-04T00:16:57;9.80;83.60
72814;DHT22;60945;48.516;-2.768;2022-11-04T00:19:41;9.90;83.50
72814;DHT22;60945;48.516;-2.768;2022-11-04T00:22:25;9.90;85.00
72814;DHT22;60945;48.516;-2.768;2022-11-04T00:25:10;9.80;85.30
72814;DHT22;60945;48.516;-2.768;2022-11-04T00:30:57;9.60;84.30
72814;DHT22;60945;48.516;-2.768;2022-11-04T00:33:44;9.40;84.10
72814;DHT22;60945;48.516;-2.768;2022-11-04T00:36:09;9.30;84.80
72814;DHT22;60945;48.516;-2.768;2022-11-04T00:38:35;9.50;84.90
72814;DHT22;60945;48.516;-2.768;2022-11-04T00:41:01;9.50;84.20
72814;DHT22;60945;48.516;-2.768;2022-11-04T00:43:26;9.50;83.30
72814;DHT22;60945;48.516;-2.768;2022-11-04T00:45:52;9.60;83.80
72814;DHT22;60945;48.516;-2.768;2022-11-04T00:48:17;9.60;83.00
72814;DHT22;60945;48.516;-2.768;2022-11-04T00:50:43;9.50;83.90
72814;DHT22;60945;48.516;-2.768;2022-11-04T00:53:09;9.30;84.30
72814;DHT22;60945;48.516;-2.768;2022-11-04T00:55:34;9.20;85.20
72814;DHT22;60945;48.516;-2.768;2022-11-04T00:58:00;9.10;85.60
72814;DHT22;60945;48.516;-2.768;2022-11-04T01:00:25;9.10;86.20
72814;DHT22;60945;48.516;-2.768;2022-11-04T01:02:51;9.00;86.20
72814;DHT22;60945;48.516;-2.768;2022-11-04T01:05:17;9.00;86.30
72814;DHT22;60945;48.516;-2.768;2022-11-04T01:07:42;9.00;86.60
72814;DHT22;60945;48.516;-2.768;2022-11-04T01:10:08;8.90;87.10
72814;DHT22;60945;48.516;-2.768;2022-11-04T01:12:34;8.80;87.40
72814;DHT22;60945;48.516;-2.768;2022-11-04T01:14:59;8.80;87.20
72814;DHT22;60945;48.516;-2.768;2022-11-04T01:17:25;8.80;86.60
72814;DHT22;60945;48.516;-2.768;2022-11-04T01:19:51;8.80;86.40
72814;DHT22;60945;48.516;-2.768;2022-11-04T01:22:17;8.70;87.20
72814;DHT22;60945;48.516;-2.768;2022-11-04T01:24:42;8.60;87.00
72814;DHT22;60945;48.516;-2.768;2022-11-04T01:27:08;8.70;86.80
72814;DHT22;60945;48.516;-2.768;2022-11-04T01:29:33;8.70;86.40
72814;DHT22;60945;48.516;-2.768;2022-11-04T01:31:59;8.70;86.00
72814;DHT22;60945;48.516;-2.768;2022-11-04T01:34:25;8.60;86.00
72814;DHT22;60945;48.516;-2.768;2022-11-04T01:36:50;8.60;85.80
72814;DHT22;60945;48.516;-2.768;2022-11-04T01:39:16;8.60;86.00
72814;DHT22;60945;48.516;-2.768;2022-11-04T01:41:41;8.50;86.00
72814;DHT22;60945;48.516;-2.768;2022-11-04T01:50:00;8.50;86.80
72814;DHT22;60945;48.516;-2.768;2022-11-04T01:52:35;8.60;86.60
72814;DHT22;60945;48.516;-2.768;2022-11-04T01:55:06;8.70;86.40
72814;DHT22;60945;48.516;-2.768;2022-11-04T01:57:40;8.60;86.10
72814;DHT22;60945;48.516;-2.768;2022-11-04T02:00:07;8.60;86.60
72814;DHT22;60945;48.516;-2.768;2022-11-04T02:02:52;8.60;86.40
72814;DHT22;60945;48.516;-2.768;2022-11-04T02:05:19;8.60;86.20
72814;DHT22;60945;48.516;-2.768;2022-11-04T02:07:49;8.50;86.60
72814;DHT22;60945;48.516;-2.768;2022-11-04T02:10:15;8.50;86.70
72814;DHT22;60945;48.516;-2.768;2022-11-04T02:12:41;8.50;86.50
72814;DHT22;60945;48.516;-2.768;2022-11-04T02:15:25;8.60;86.50
72814;DHT22;60945;48.516;-2.768;2022-11-04T02:21:21;8.50;86.60
72814;DHT22;60945;48.516;-2.768;2022-11-04T02:35:42;9.00;85.50
72814;DHT22;60945;48.516;-2.768;2022-11-04T02:46:35;9.40;85.40
72814;DHT22;60945;48.516;-2.768;2022-11-04T02:49:16;9.40;85.90
72814;DHT22;60945;48.516;-2.768;2022-11-04T02:55:09;9.40;86.40
72814;DHT22;60945;48.516;-2.768;2022-11-04T02:57:29;9.40;86.20
72814;DHT22;60945;48.516;-2.768;2022-11-04T03:00:00;9.40;86.50
72814;DHT22;60945;48.516;-2.768;2022-11-04T03:02:43;9.30;86.70
72814;DHT22;60945;48.516;-2.768;2022-11-04T03:05:14;9.20;87.90
72814;DHT22;60945;48.516;-2.768;2022-11-04T03:07:41;9.30;87.00
72814;DHT22;60945;48.516;-2.768;2022-11-04T03:10:14;9.40;87.00
72814;DHT22;60945;48.516;-2.768;2022-11-04T03:12:45;9.30;87.10
72814;DHT22;60945;48.516;-2.768;2022-11-04T03:15:18;9.40;87.10
72814;DHT22;60945;48.516;-2.768;2022-11-04T03:20:25;9.30;88.30
72814;DHT22;60945;48.516;-2.768;2022-11-04T03:22:53;9.40;87.90
72814;DHT22;60945;48.516;-2.768;2022-11-04T03:25:27;9.40;87.70
72814;DHT22;60945;48.516;-2.768;2022-11-04T03:30:37;9.60;87.50
72814;DHT22;60945;48.516;-2.768;2022-11-04T03:36:10;9.60;88.10
72814;DHT22;60945;48.516;-2.768;2022-11-04T03:38:37;9.60;89.20
72814;DHT22;60945;48.516;-2.768;2022-11-04T03:41:08;9.50;89.50
72814;DHT22;60945;48.516;-2.768;2022-11-04T03:43:36;9.50;89.60
72814;DHT22;60945;48.516;-2.768;2022-11-04T03:46:02;9.60;89.30
72814;DHT22;60945;48.516;-2.768;2022-11-04T03:48:28;9.70;89.00
72814;DHT22;60945;48.516;-2.768;2022-11-04T03:50:54;9.70;89.60
72814;DHT22;60945;48.516;-2.768;2022-11-04T03:53:21;9.80;89.90
72814;DHT22;60945;48.516;-2.768;2022-11-04T04:01:38;9.80;90.20
72814;DHT22;60945;48.516;-2.768;2022-11-04T04:04:24;9.80;90.40
72814;DHT22;60945;48.516;-2.768;2022-11-04T04:06:53;9.90;90.00
72814;DHT22;60945;48.516;-2.768;2022-11-04T04:09:25;10.00;89.70
72814;DHT22;60945;48.516;-2.768;2022-11-04T04:12:31;10.10;89.90
72814;DHT22;60945;48.516;-2.768;2022-11-04T04:15:12;10.20;89.70
72814;DHT22;60945;48.516;-2.768;2022-11-04T04:20:40;10.40;87.00
72814;DHT22;60945;48.516;-2.768;2022-11-04T04:23:20;10.40;86.40
72814;DHT22;60945;48.516;-2.768;2022-11-04T04:26:08;10.40;86.80
72814;DHT22;60945;48.516;-2.768;2022-11-04T04:28:55;10.30;86.50
72814;DHT22;60945;48.516;-2.768;2022-11-04T04:31:22;10.20;85.90
72814;DHT22;60945;48.516;-2.768;2022-11-04T04:34:08;10.20;86.00
72814;DHT22;60945;48.516;-2.768;2022-11-04T04:36:47;10.30;85.90
72814;DHT22;60945;48.516;-2.768;2022-11-04T04:39:17;10.20;85.90
72814;DHT22;60945;48.516;-2.768;2022-11-04T04:42:20;10.10;86.20
72814;DHT22;60945;48.516;-2.768;2022-11-04T04:45:05;10.20;86.60
72814;DHT22;60945;48.516;-2.768;2022-11-04T04:47:45;10.20;86.40
72814;DHT22;60945;48.516;-2.768;2022-11-04T04:50:16;10.10;86.10
72814;DHT22;60945;48.516;-2.768;2022-11-04T04:52:47;10.10;86.30
72814;DHT22;60945;48.516;-2.768;2022-11-04T04:55:13;10.20;85.70
72814;DHT22;60945;48.516;-2.768;2022-11-04T04:57:39;10.20;85.50
72814;DHT22;60945;48.516;-2.768;2022-11-04T05:00:07;10.20;85.60
72814;DHT22;60945;48.516;-2.768;2022-11-04T05:02:33;10.20;85.70
72814;DHT22;60945;48.516;-2.768;2022-11-04T05:04:59;10.20;86.10
72814;DHT22;60945;48.516;-2.768;2022-11-04T05:07:25;10.20;85.90
72814;DHT22;60945;48.516;-2.768;2022-11-04T05:09:51;10.20;86.90
72814;DHT22;60945;48.516;-2.768;2022-11-04T05:12:17;10.10;87.00
72814;DHT22;60945;48.516;-2.768;2022-11-04T05:14:42;10.00;87.60
72814;DHT22;60945;48.516;-2.768;2022-11-04T05:17:08;9.90;88.80
72814;DHT22;60945;48.516;-2.768;2022-11-04T05:19:34;9.90;88.50
72814;DHT22;60945;48.516;-2.768;2022-11-04T05:21:59;10.00;88.60
72814;DHT22;60945;48.516;-2.768;2022-11-04T05:24:25;10.00;88.50
72814;DHT22;60945;48.516;-2.768;2022-11-04T05:26:51;9.90;88.70
72814;DHT22;60945;48.516;-2.768;2022-11-04T05:29:17;9.80;88.50
72814;DHT22;60945;48.516;-2.768;2022-11-04T05:31:42;9.70;89.00
72814;DHT22;60945;48.516;-2.768;2022-11-04T05:34:12;9.60;89.10
72814;DHT22;60945;48.516;-2.768;2022-11-04T05:36:38;9.60;88.50
72814;DHT22;60945;48.516;-2.768;2022-11-04T05:39:04;9.60;88.80
72814;DHT22;60945;48.516;-2.768;2022-11-04T05:41:31;9.70;88.10
72814;DHT22;60945;48.516;-2.768;2022-11-04T05:43:58;9.80;87.60
72814;DHT22;60945;48.516;-2.768;2022-11-04T05:46:25;9.90;87.10
72814;DHT22;60945;48.516;-2.768;2022-11-04T05:48:51;10.00;86.70
72814;DHT22;60945;48.516;-2.768;2022-11-04T05:51:19;10.00;86.90
72814;DHT22;60945;48.516;-2.768;2022-11-04T05:53:45;10.10;87.30
72814;DHT22;60945;48.516;-2.768;2022-11-04T05:56:11;10.10;86.40
72814;DHT22;60945;48.516;-2.768;2022-11-04T05:58:37;10.10;86.10
72814;DHT22;60945;48.516;-2.768;2022-11-04T06:01:23;10.20;86.20
72814;DHT22;60945;48.516;-2.768;2022-11-04T06:03:49;10.20;86.40
72814;DHT22;60945;48.516;-2.768;2022-11-04T06:06:15;10.20;87.10
72814;DHT22;60945;48.516;-2.768;2022-11-04T06:08:40;10.20;86.40
72814;DHT22;60945;48.516;-2.768;2022-11-04T06:11:06;10.30;86.30
72814;DHT22;60945;48.516;-2.768;2022-11-04T06:13:32;10.30;86.80
72814;DHT22;60945;48.516;-2.768;2022-11-04T06:16:00;10.20;86.70
72814;DHT22;60945;48.516;-2.768;2022-11-04T06:18:25;10.30;87.00
72814;DHT22;60945;48.516;-2.768;2022-11-04T06:23:38;10.30;87.50
72814;DHT22;60945;48.516;-2.768;2022-11-04T06:26:03;10.20;88.30
72814;DHT22;60945;48.516;-2.768;2022-11-04T06:28:29;10.20;88.10
72814;DHT22;60945;48.516;-2.768;2022-11-04T06:30:59;10.20;88.90
72814;DHT22;60945;48.516;-2.768;2022-11-04T06:33:26;10.20;89.20
72814;DHT22;60945;48.516;-2.768;2022-11-04T06:35:51;10.20;89.10
72814;DHT22;60945;48.516;-2.768;2022-11-04T06:38:21;10.20;88.90
72814;DHT22;60945;48.516;-2.768;2022-11-04T06:40:46;10.30;87.90
72814;DHT22;60945;48.516;-2.768;2022-11-04T06:43:12;10.30;87.70
72814;DHT22;60945;48.516;-2.768;2022-11-04T06:45:37;10.30;87.50
72814;DHT22;60945;48.516;-2.768;2022-11-04T06:48:03;10.30;87.90
72814;DHT22;60945;48.516;-2.768;2022-11-04T06:50:29;10.30;88.00
72814;DHT22;60945;48.516;-2.768;2022-11-04T06:52:55;10.30;87.50
72814;DHT22;60945;48.516;-2.768;2022-11-04T06:55:20;10.30;88.00
72814;DHT22;60945;48.516;-2.768;2022-11-04T06:57:46;10.20;88.60
72814;DHT22;60945;48.516;-2.768;2022-11-04T07:00:12;10.10;88.10
72814;DHT22;60945;48.516;-2.768;2022-11-04T07:02:37;10.10;88.00
72814;DHT22;60945;48.516;-2.768;2022-11-04T07:05:03;10.10;87.70
72814;DHT22;60945;48.516;-2.768;2022-11-04T07:07:29;10.20;87.30
72814;DHT22;60945;48.516;-2.768;2022-11-04T07:09:55;10.20;87.10
72814;DHT22;60945;48.516;-2.768;2022-11-04T07:12:21;10.30;86.40
72814;DHT22;60945;48.516;-2.768;2022-11-04T07:14:50;10.40;86.50
72814;DHT22;60945;48.516;-2.768;2022-11-04T07:17:16;10.40;87.40
72814;DHT22;60945;48.516;-2.768;2022-11-04T07:19:41;10.40;87.80
72814;DHT22;60945;48.516;-2.768;2022-11-04T07:22:07;10.40;87.30
72814;DHT22;60945;48.516;-2.768;2022-11-04T07:24:33;10.40;87.60
72814;DHT22;60945;48.516;-2.768;2022-11-04T07:26:59;10.40;88.20
72814;DHT22;60945;48.516;-2.768;2022-11-04T07:29:24;10.40;88.30
72814;DHT22;60945;48.516;-2.768;2022-11-04T07:31:50;10.40;88.30
72814;DHT22;60945;48.516;-2.768;2022-11-04T07:34:16;10.40;88.40
72814;DHT22;60945;48.516;-2.768;2022-11-04T07:36:41;10.50;88.40
72814;DHT22;60945;48.516;-2.768;2022-11-04T07:39:07;10.40;87.60
72814;DHT22;60945;48.516;-2.768;2022-11-04T07:41:33;10.40;88.00
72814;DHT22;60945;48.516;-2.768;2022-11-04T07:43:58;10.40;88.00
72814;DHT22;60945;48.516;-2.768;2022-11-04T07:46:25;10.50;87.40
72814;DHT22;60945;48.516;-2.768;2022-11-04T07:48:51;10.50;87.00
72814;DHT22;60945;48.516;-2.768;2022-11-04T07:51:18;10.30;86.60
72814;DHT22;60945;48.516;-2.768;2022-11-04T07:53:44;10.20;87.50
72814;DHT22;60945;48.516;-2.768;2022-11-04T07:56:12;10.20;87.40
72814;DHT22;60945;48.516;-2.768;2022-11-04T07:58:38;10.20;87.20
72814;DHT22;60945;48.516;-2.768;2022-11-04T08:01:10;10.20;87.20
72814;DHT22;60945;48.516;-2.768;2022-11-04T08:03:36;10.20;87.10
72814;DHT22;60945;48.516;-2.768;2022-11-04T08:06:04;10.10;87.10
72814;DHT22;60945;48.516;-2.768;2022-11-04T08:08:30;10.10;87.20
72814;DHT22;60945;48.516;-2.768;2022-11-04T08:11:08;10.10;86.90
72814;DHT22;60945;48.516;-2.768;2022-11-04T08:13:36;10.10;87.10
72814;DHT22;60945;48.516;-2.768;2022-11-04T08:16:05;10.00;87.50
72814;DHT22;60945;48.516;-2.768;2022-11-04T08:18:32;10.00;87.40
72814;DHT22;60945;48.516;-2.768;2022-11-04T08:20:58;10.00;87.30
72814;DHT22;60945;48.516;-2.768;2022-11-04T08:23:25;10.20;89.20
72814;DHT22;60945;48.516;-2.768;2022-11-04T08:25:51;10.50;87.20
72814;DHT22;60945;48.516;-2.768;2022-11-04T08:28:16;11.00;85.90
72814;DHT22;60945;48.516;-2.768;2022-11-04T08:30:55;11.50;82.70
72814;DHT22;60945;48.516;-2.768;2022-11-04T08:33:23;12.40;80.10
72814;DHT22;60945;48.516;-2.768;2022-11-04T08:35:49;13.20;75.50
72814;DHT22;60945;48.516;-2.768;2022-11-04T08:38:15;14.30;71.40
72814;DHT22;60945;48.516;-2.768;2022-11-04T08:40:41;15.30;67.40
72814;DHT22;60945;48.516;-2.768;2022-11-04T08:43:07;15.50;64.50
72814;DHT22;60945;48.516;-2.768;2022-11-04T08:45:33;15.30;67.30
72814;DHT22;60945;48.516;-2.768;2022-11-04T08:48:02;16.80;62.00
72814;DHT22;60945;48.516;-2.768;2022-11-04T08:50:29;16.40;60.40
72814;DHT22;60945;48.516;-2.768;2022-11-04T08:52:55;15.60;63.00
72814;DHT22;60945;48.516;-2.768;2022-11-04T08:55:21;14.20;67.30
72814;DHT22;60945;48.516;-2.768;2022-11-04T08:57:47;13.50;69.80
72814;DHT22;60945;48.516;-2.768;2022-11-04T09:00:13;14.50;66.70
72814;DHT22;60945;48.516;-2.768;2022-11-04T09:02:42;16.10;64.00
72814;DHT22;60945;48.516;-2.768;2022-11-04T09:05:08;16.90;58.60
72814;DHT22;60945;48.516;-2.768;2022-11-04T09:07:36;16.10;61.30
72814;DHT22;60945;48.516;-2.768;2022-11-04T09:10:02;14.80;64.90
72814;DHT22;60945;48.516;-2.768;2022-11-04T09:12:28;15.50;63.00
72814;DHT22;60945;48.516;-2.768;2022-11-04T09:14:54;15.20;64.50
72814;DHT22;60945;48.516;-2.768;2022-11-04T09:17:19;16.00;63.20
72814;DHT22;60945;48.516;-2.768;2022-11-04T09:19:45;14.70;64.90
72814;DHT22;60945;48.516;-2.768;2022-11-04T09:22:10;13.60;68.90
72814;DHT22;60945;48.516;-2.768;2022-11-04T09:24:36;13.20;71.00
72814;DHT22;60945;48.516;-2.768;2022-11-04T09:27:03;13.30;70.60
72814;DHT22;60945;48.516;-2.768;2022-11-04T09:29:29;13.70;69.60
72814;DHT22;60945;48.516;-2.768;2022-11-04T09:31:58;13.60;70.00
72814;DHT22;60945;48.516;-2.768;2022-11-04T09:34:24;13.40;70.90
72814;DHT22;60945;48.516;-2.768;2022-11-04T09:36:49;13.30;70.80
72814;DHT22;60945;48.516;-2.768;2022-11-04T09:39:15;12.90;71.80
72814;DHT22;60945;48.516;-2.768;2022-11-04T09:44:26;12.50;73.30
72814;DHT22;60945;48.516;-2.768;2022-11-04T09:46:58;12.40;74.20
72814;DHT22;60945;48.516;-2.768;2022-11-04T09:49:31;12.40;73.90
72814;DHT22;60945;48.516;-2.768;2022-11-04T09:52:07;12.50;73.70
72814;DHT22;60945;48.516;-2.768;2022-11-04T09:54:43;12.60;73.00
72814;DHT22;60945;48.516;-2.768;2022-11-04T09:57:16;12.50;72.70
72814;DHT22;60945;48.516;-2.768;2022-11-04T09:59:42;12.60;73.30
72814;DHT22;60945;48.516;-2.768;2022-11-04T10:13:30;12.70;70.60
72814;DHT22;60945;48.516;-2.768;2022-11-04T10:16:46;12.70;70.70
72814;DHT22;60945;48.516;-2.768;2022-11-04T10:19:30;12.80;70.60
72814;DHT22;60945;48.516;-2.768;2022-11-04T10:22:16;12.80;69.80
72814;DHT22;60945;48.516;-2.768;2022-11-04T10:24:55;12.90;69.80
72814;DHT22;60945;48.516;-2.768;2022-11-04T10:27:30;13.20;68.90
72814;DHT22;60945;48.516;-2.768;2022-11-04T10:30:02;13.30;68.90
72814;DHT22;60945;48.516;-2.768;2022-11-04T10:32:39;13.20;68.10
72814;DHT22;60945;48.516;-2.768;2022-11-04T10:38:00;13.00;68.40
72814;DHT22;60945;48.516;-2.768;2022-11-04T10:40:35;13.20;67.80
72814;DHT22;60945;48.516;-2.768;2022-11-04T10:43:08;13.20;67.00
72814;DHT22;60945;48.516;-2.768;2022-11-04T10:45:42;13.20;67.60
72814;DHT22;60945;48.516;-2.768;2022-11-04T10:48:21;13.10;67.10
72814;DHT22;60945;48.516;-2.768;2022-11-04T10:50:54;13.00;66.10
72814;DHT22;60945;48.516;-2.768;2022-11-04T10:53:28;13.10;66.70
72814;DHT22;60945;48.516;-2.768;2022-11-04T10:58:52;13.20;66.70
72814;DHT22;60945;48.516;-2.768;2022-11-04T11:01:32;13.20;66.20
72814;DHT22;60945;48.516;-2.768;2022-11-04T11:03:58;13.20;66.70
72814;DHT22;60945;48.516;-2.768;2022-11-04T11:06:30;13.40;65.80
72814;DHT22;60945;48.516;-2.768;2022-11-04T11:11:43;13.10;63.20
72814;DHT22;60945;48.516;-2.768;2022-11-04T11:14:35;13.10;63.80
72814;DHT22;60945;48.516;-2.768;2022-11-04T11:20:19;12.90;62.80
72814;DHT22;60945;48.516;-2.768;2022-11-04T11:22:47;12.90;62.10
72814;DHT22;60945;48.516;-2.768;2022-11-04T11:25:29;13.00;62.60
72814;DHT22;60945;48.516;-2.768;2022-11-04T11:33:27;13.00;63.40
72814;DHT22;60945;48.516;-2.768;2022-11-04T11:36:33;13.00;63.30
72814;DHT22;60945;48.516;-2.768;2022-11-04T11:44:31;13.10;62.90
72814;DHT22;60945;48.516;-2.768;2022-11-04T11:47:03;13.10;61.80
72814;DHT22;60945;48.516;-2.768;2022-11-04T11:49:34;13.00;60.50
72814;DHT22;60945;48.516;-2.768;2022-11-04T11:54:56;13.00;59.70
72814;DHT22;60945;48.516;-2.768;2022-11-04T11:57:40;13.20;59.90
72814;DHT22;60945;48.516;-2.768;2022-11-04T12:00:13;13.20;60.70
72814;DHT22;60945;48.516;-2.768;2022-11-04T12:02:52;13.20;60.00
72814;DHT22;60945;48.516;-2.768;2022-11-04T12:05:26;13.20;59.40
72814;DHT22;60945;48.516;-2.768;2022-11-04T12:11:29;13.30;60.00
72814;DHT22;60945;48.516;-2.768;2022-11-04T12:13:40;13.30;60.50
72814;DHT22;60945;48.516;-2.768;2022-11-04T12:21:34;13.30;58.90
72814;DHT22;60945;48.516;-2.768;2022-11-04T12:29:35;13.20;60.00
72814;DHT22;60945;48.516;-2.768;2022-11-04T12:32:29;13.20;60.30
72814;DHT22;60945;48.516;-2.768;2022-11-04T12:37:54;13.30;59.70
72814;DHT22;60945;48.516;-2.768;2022-11-04T12:40:32;13.30;59.90
72814;DHT22;60945;48.516;-2.768;2022-11-04T12:43:15;13.30;60.10
72814;DHT22;60945;48.516;-2.768;2022-11-04T12:46:07;13.30;60.20
72814;DHT22;60945;48.516;-2.768;2022-11-04T12:56:19;13.40;59.70
72814;DHT22;60945;48.516;-2.768;2022-11-04T13:01:49;13.60;59.40
72814;DHT22;60945;48.516;-2.768;2022-11-04T13:04:21;13.80;59.10
72814;DHT22;60945;48.516;-2.768;2022-11-04T13:07:03;13.90;59.50
72814;DHT22;60945;48.516;-2.768;2022-11-04T13:09:42;14.00;59.70
72814;DHT22;60945;48.516;-2.768;2022-11-04T13:12:15;13.80;60.20
72814;DHT22;60945;48.516;-2.768;2022-11-04T13:17:31;13.80;60.70
72814;DHT22;60945;48.516;-2.768;2022-11-04T13:22:44;14.20;60.80
72814;DHT22;60945;48.516;-2.768;2022-11-04T13:27:52;14.30;62.00
72814;DHT22;60945;48.516;-2.768;2022-11-04T13:30:19;15.20;60.10
72814;DHT22;60945;48.516;-2.768;2022-11-04T13:38:37;19.70;48.90
72814;DHT22;60945;48.516;-2.768;2022-11-04T13:43:52;17.50;53.70
72814;DHT22;60945;48.516;-2.768;2022-11-04T13:46:29;16.50;56.60
72814;DHT22;60945;48.516;-2.768;2022-11-04T13:48:59;15.50;60.00
72814;DHT22;60945;48.516;-2.768;2022-11-04T13:51:45;15.00;62.20
72814;DHT22;60945;48.516;-2.768;2022-11-04T13:54:27;15.10;62.80
72814;DHT22;60945;48.516;-2.768;2022-11-04T13:57:11;14.90;63.60
72814;DHT22;60945;48.516;-2.768;2022-11-04T13:59:38;15.00;63.20
72814;DHT22;60945;48.516;-2.768;2022-11-04T14:04:42;14.90;64.10
72814;DHT22;60945;48.516;-2.768;2022-11-04T14:07:10;14.70;64.80
72814;DHT22;60945;48.516;-2.768;2022-11-04T14:14:51;13.90;69.20
72814;DHT22;60945;48.516;-2.768;2022-11-04T14:39:51;13.80;71.50
72814;DHT22;60945;48.516;-2.768;2022-11-04T14:46:52;14.20;68.80
72814;DHT22;60945;48.516;-2.768;2022-11-04T14:49:45;14.20;68.00
72814;DHT22;60945;48.516;-2.768;2022-11-04T14:52:25;14.00;67.60
72814;DHT22;60945;48.516;-2.768;2022-11-04T14:55:03;13.90;67.40
72814;DHT22;60945;48.516;-2.768;2022-11-04T14:57:39;13.70;66.70
72814;DHT22;60945;48.516;-2.768;2022-11-04T15:05:59;13.10;68.30
72814;DHT22;60945;48.516;-2.768;2022-11-04T15:08:43;13.00;68.60
72814;DHT22;60945;48.516;-2.768;2022-11-04T15:13:46;12.80;69.60
72814;DHT22;60945;48.516;-2.768;2022-11-04T15:16:17;12.80;69.30
72814;DHT22;60945;48.516;-2.768;2022-11-04T15:18:43;12.70;69.50
72814;DHT22;60945;48.516;-2.768;2022-11-04T15:21:09;12.70;69.40
72814;DHT22;60945;48.516;-2.768;2022-11-04T15:23:45;12.60;70.30
72814;DHT22;60945;48.516;-2.768;2022-11-04T15:26:32;12.60;69.80
72814;DHT22;60945;48.516;-2.768;2022-11-04T15:29:00;12.50;69.10
72814;DHT22;60945;48.516;-2.768;2022-11-04T15:31:30;12.40;69.40
72814;DHT22;60945;48.516;-2.768;2022-11-04T15:33:59;12.30;69.80
72814;DHT22;60945;48.516;-2.768;2022-11-04T15:36:28;12.30;69.40
72814;DHT22;60945;48.516;-2.768;2022-11-04T15:38:57;12.30;68.70
72814;DHT22;60945;48.516;-2.768;2022-11-04T15:41:25;12.30;69.00
72814;DHT22;60945;48.516;-2.768;2022-11-04T15:44:21;12.20;68.60
72814;DHT22;60945;48.516;-2.768;2022-11-04T15:46:49;12.30;68.80
72814;DHT22;60945;48.516;-2.768;2022-11-04T15:49:38;12.30;68.90
72814;DHT22;60945;48.516;-2.768;2022-11-04T15:52:06;12.30;69.10
72814;DHT22;60945;48.516;-2.768;2022-11-04T15:54:40;12.10;69.60
72814;DHT22;60945;48.516;-2.768;2022-11-04T15:57:32;12.00;72.00
72814;DHT22;60945;48.516;-2.768;2022-11-04T16:00:05;11.90;72.20
72814;DHT22;60945;48.516;-2.768;2022-11-04T16:02:36;11.80;73.70
72814;DHT22;60945;48.516;-2.768;2022-11-04T16:10:35;11.50;75.60
72814;DHT22;60945;48.516;-2.768;2022-11-04T16:15:44;11.30;75.30
72814;DHT22;60945;48.516;-2.768;2022-11-04T16:18:25;11.20;75.80
72814;DHT22;60945;48.516;-2.768;2022-11-04T16:20:55;11.10;75.10
72814;DHT22;60945;48.516;-2.768;2022-11-04T16:23:23;11.10;75.30
72814;DHT22;60945;48.516;-2.768;2022-11-04T16:26:00;11.00;76.00
72814;DHT22;60945;48.516;-2.768;2022-11-04T16:28:33;10.90;75.40
72814;DHT22;60945;48.516;-2.768;2022-11-04T16:31:03;10.90;75.10
72814;DHT22;60945;48.516;-2.768;2022-11-04T16:33:29;10.80;76.70
72814;DHT22;60945;48.516;-2.768;2022-11-04T16:35:55;10.70;76.40
72814;DHT22;60945;48.516;-2.768;2022-11-04T16:38:21;10.70;77.20
72814;DHT22;60945;48.516;-2.768;2022-11-04T16:40:48;10.60;78.10
72814;DHT22;60945;48.516;-2.768;2022-11-04T16:43:20;10.50;77.40
72814;DHT22;60945;48.516;-2.768;2022-11-04T16:45:47;10.50;77.90
72814;DHT22;60945;48.516;-2.768;2022-11-04T16:48:17;10.40;77.20
72814;DHT22;60945;48.516;-2.768;2022-11-04T16:50:44;10.40;79.00
72814;DHT22;60945;48.516;-2.768;2022-11-04T16:53:10;10.30;78.50
72814;DHT22;60945;48.516;-2.768;2022-11-04T16:55:39;10.30;78.50
72814;DHT22;60945;48.516;-2.768;2022-11-04T16:58:16;10.20;78.60
72814;DHT22;60945;48.516;-2.768;2022-11-04T17:00:42;10.20;77.60
72814;DHT22;60945;48.516;-2.768;2022-11-04T17:03:16;10.20;78.30
72814;DHT22;60945;48.516;-2.768;2022-11-04T17:05:55;10.10;77.90
72814;DHT22;60945;48.516;-2.768;2022-11-04T17:08:22;10.10;78.00
72814;DHT22;60945;48.516;-2.768;2022-11-04T17:10:48;10.00;78.20
72814;DHT22;60945;48.516;-2.768;2022-11-04T17:13:14;10.00;78.20
72814;DHT22;60945;48.516;-2.768;2022-11-04T17:15:43;10.00;79.50
72814;DHT22;60945;48.516;-2.768;2022-11-04T17:18:14;9.90;79.70
72814;DHT22;60945;48.516;-2.768;2022-11-04T17:20:42;9.80;80.70
72814;DHT22;60945;48.516;-2.768;2022-11-04T17:23:11;9.80;81.10
72814;DHT22;60945;48.516;-2.768;2022-11-04T17:25:40;9.70;81.30
72814;DHT22;60945;48.516;-2.768;2022-11-04T17:28:07;9.60;81.20
72814;DHT22;60945;48.516;-2.768;2022-11-04T17:30:33;9.70;81.90
72814;DHT22;60945;48.516;-2.768;2022-11-04T17:32:58;9.60;82.20
72814;DHT22;60945;48.516;-2.768;2022-11-04T17:35:25;9.60;82.70
72814;DHT22;60945;48.516;-2.768;2022-11-04T17:37:52;9.60;82.60
72814;DHT22;60945;48.516;-2.768;2022-11-04T17:40:19;9.50;83.20
72814;DHT22;60945;48.516;-2.768;2022-11-04T17:42:45;9.50;82.90
72814;DHT22;60945;48.516;-2.768;2022-11-04T17:45:30;9.50;82.60
72814;DHT22;60945;48.516;-2.768;2022-11-04T17:47:56;9.50;82.30
72814;DHT22;60945;48.516;-2.768;2022-11-04T17:50:21;9.50;81.70
72814;DHT22;60945;48.516;-2.768;2022-11-04T17:52:47;9.40;82.20
72814;DHT22;60945;48.516;-2.768;2022-11-04T17:55:15;9.40;81.80
72814;DHT22;60945;48.516;-2.768;2022-11-04T17:57:41;9.40;81.80
72814;DHT22;60945;48.516;-2.768;2022-11-04T18:00:07;9.40;81.40
72814;DHT22;60945;48.516;-2.768;2022-11-04T18:02:35;9.40;81.20
72814;DHT22;60945;48.516;-2.768;2022-11-04T18:05:01;9.40;81.20
72814;DHT22;60945;48.516;-2.768;2022-11-04T18:07:28;9.30;82.40
72814;DHT22;60945;48.516;-2.768;2022-11-04T18:09:54;9.20;82.20
72814;DHT22;60945;48.516;-2.768;2022-11-04T18:12:20;9.20;82.60
72814;DHT22;60945;48.516;-2.768;2022-11-04T18:15:12;9.20;83.10
72814;DHT22;60945;48.516;-2.768;2022-11-04T18:17:39;9.10;83.20
72814;DHT22;60945;48.516;-2.768;2022-11-04T18:20:07;9.10;82.90
72814;DHT22;60945;48.516;-2.768;2022-11-04T18:22:34;9.10;82.70
72814;DHT22;60945;48.516;-2.768;2022-11-04T18:25:00;9.10;83.30
72814;DHT22;60945;48.516;-2.768;2022-11-04T18:27:26;9.10;83.20
72814;DHT22;60945;48.516;-2.768;2022-11-04T18:29:51;9.10;83.20
72814;DHT22;60945;48.516;-2.768;2022-11-04T18:32:17;9.10;83.20
72814;DHT22;60945;48.516;-2.768;2022-11-04T18:34:43;9.10;83.50
72814;DHT22;60945;48.516;-2.768;2022-11-04T18:37:08;9.10;83.60
72814;DHT22;60945;48.516;-2.768;2022-11-04T18:39:34;9.10;83.30
72814;DHT22;60945;48.516;-2.768;2022-11-04T18:42:01;9.10;83.10
72814;DHT22;60945;48.516;-2.768;2022-11-04T18:44:27;9.00;83.30
72814;DHT22;60945;48.516;-2.768;2022-11-04T18:46:53;9.00;83.30
72814;DHT22;60945;48.516;-2.768;2022-11-04T18:49:18;9.00;83.60
72814;DHT22;60945;48.516;-2.768;2022-11-04T18:51:45;9.00;83.50